sensor_id;sensor_type;location;lat;lon;timestamp;P1;durP1;ratioP1;P2;durP2;ratioP2
72113;SDS011;59989;46.220;19.888;2022-08-14T00:00:09;11.13;;;5.57;;
72113;SDS011;59989;46.220;19.888;2022-08-14T00:03:33;10.55;;;5.78;;
72113;SDS011;59989;46.220;19.888;2022-08-14T00:06:37;9.97;;;5.50;;
72113;SDS011;59989;46.220;19.888;2022-08-14T00:09:41;10.40;;;5.72;;
72113;SDS011;59989;46.220;19.888;2022-08-14T00:13:07;11.98;;;6.15;;
72113;SDS011;59989;46.220;19.888;2022-08-14T00:16:14;10.43;;;5.70;;
72113;SDS011;59989;46.220;19.888;2022-08-14T00:19:37;10.88;;;5.88;;
72113;SDS011;59989;46.220;19.888;2022-08-14T00:22:42;9.63;;;5.60;;
72113;SDS011;59989;46.220;19.888;2022-08-14T00:25:58;11.75;;;5.38;;
72113;SDS011;59989;46.220;19.888;2022-08-14T00:29:07;12.85;;;6.57;;
72113;SDS011;59989;46.220;19.888;2022-08-14T00:32:09;11.23;;;5.70;;
72113;SDS011;59989;46.220;19.888;2022-08-14T00:35:33;10.25;;;5.95;;
72113;SDS011;59989;46.220;19.888;2022-08-14T00:38:56;10.20;;;5.90;;
72113;SDS011;59989;46.220;19.888;2022-08-14T00:41:58;11.45;;;5.88;;
72113;SDS011;59989;46.220;19.888;2022-08-14T00:45:03;10.27;;;5.88;;
72113;SDS011;59989;46.220;19.888;2022-08-14T00:48:08;12.77;;;6.20;;
72113;SDS011;59989;46.220;19.888;2022-08-14T00:51:11;11.90;;;6.35;;
72113;SDS011;59989;46.220;19.888;2022-08-14T00:54:14;11.53;;;6.03;;
72113;SDS011;59989;46.220;19.888;2022-08-14T00:57:24;10.13;;;6.10;;
72113;SDS011;59989;46.220;19.888;2022-08-14T01:00:36;10.90;;;6.15;;
72113;SDS011;59989;46.220;19.888;2022-08-14T01:03:52;10.70;;;5.72;;
72113;SDS011;59989;46.220;19.888;2022-08-14T01:06:54;11.13;;;6.15;;
72113;SDS011;59989;46.220;19.888;2022-08-14T01:09:58;10.43;;;6.10;;
72113;SDS011;59989;46.220;19.888;2022-08-14T01:13:02;12.25;;;6.43;;
72113;SDS011;59989;46.220;19.888;2022-08-14T01:16:09;10.77;;;5.80;;
72113;SDS011;59989;46.220;19.888;2022-08-14T01:19:15;14.27;;;6.15;;
72113;SDS011;59989;46.220;19.888;2022-08-14T01:22:37;10.20;;;5.75;;
72113;SDS011;59989;46.220;19.888;2022-08-14T01:25:44;11.83;;;6.40;;
72113;SDS011;59989;46.220;19.888;2022-08-14T01:28:49;11.27;;;6.03;;
72113;SDS011;59989;46.220;19.888;2022-08-14T01:31:58;10.57;;;6.28;;
72113;SDS011;59989;46.220;19.888;2022-08-14T01:35:05;14.13;;;6.43;;
72113;SDS011;59989;46.220;19.888;2022-08-14T01:38:29;11.20;;;6.43;;
72113;SDS011;59989;46.220;19.888;2022-08-14T01:41:38;10.73;;;6.17;;
72113;SDS011;59989;46.220;19.888;2022-08-14T01:44:45;9.85;;;5.70;;
72113;SDS011;59989;46.220;19.888;2022-08-14T01:47:55;11.15;;;6.07;;
72113;SDS011;59989;46.220;19.888;2022-08-14T01:51:05;11.95;;;6.20;;
72113;SDS011;59989;46.220;19.888;2022-08-14T01:54:21;10.70;;;6.15;;
72113;SDS011;59989;46.220;19.888;2022-08-14T01:57:40;12.10;;;6.23;;
72113;SDS011;59989;46.220;19.888;2022-08-14T02:01:03;11.20;;;6.13;;
72113;SDS011;59989;46.220;19.888;2022-08-14T02:04:09;11.65;;;5.97;;
72113;SDS011;59989;46.220;19.888;2022-08-14T02:07:32;11.02;;;5.75;;
72113;SDS011;59989;46.220;19.888;2022-08-14T02:10:58;10.98;;;5.95;;
72113;SDS011;59989;46.220;19.888;2022-08-14T02:14:19;10.67;;;6.13;;
72113;SDS011;59989;46.220;19.888;2022-08-14T02:17:32;11.13;;;6.30;;
72113;SDS011;59989;46.220;19.888;2022-08-14T02:20:36;10.57;;;5.82;;
72113;SDS011;59989;46.220;19.888;2022-08-14T02:23:38;10.88;;;5.63;;
72113;SDS011;59989;46.220;19.888;2022-08-14T02:26:42;10.60;;;6.22;;
72113;SDS011;59989;46.220;19.888;2022-08-14T02:30:14;10.47;;;5.87;;
72113;SDS011;59989;46.220;19.888;2022-08-14T02:33:17;11.93;;;6.28;;
72113;SDS011;59989;46.220;19.888;2022-08-14T02:36:20;10.25;;;5.95;;
72113;SDS011;59989;46.220;19.888;2022-08-14T02:39:44;11.70;;;5.95;;
72113;SDS011;59989;46.220;19.888;2022-08-14T02:42:49;11.82;;;6.18;;
72113;SDS011;59989;46.220;19.888;2022-08-14T02:45:58;15.27;;;6.47;;
72113;SDS011;59989;46.220;19.888;2022-08-14T02:49:02;10.63;;;6.38;;
72113;SDS011;59989;46.220;19.888;2022-08-14T02:52:07;10.80;;;6.03;;
72113;SDS011;59989;46.220;19.888;2022-08-14T02:55:31;11.82;;;5.85;;
72113;SDS011;59989;46.220;19.888;2022-08-14T02:58:35;12.65;;;5.65;;
72113;SDS011;59989;46.220;19.888;2022-08-14T03:01:43;10.00;;;5.87;;
72113;SDS011;59989;46.220;19.888;2022-08-14T03:04:55;10.63;;;5.80;;
72113;SDS011;59989;46.220;19.888;2022-08-14T03:08:10;10.20;;;6.40;;
72113;SDS011;59989;46.220;19.888;2022-08-14T03:11:19;9.80;;;5.57;;
72113;SDS011;59989;46.220;19.888;2022-08-14T03:14:24;10.50;;;5.95;;
72113;SDS011;59989;46.220;19.888;2022-08-14T03:17:28;10.10;;;6.10;;
72113;SDS011;59989;46.220;19.888;2022-08-14T03:20:43;11.18;;;6.60;;
72113;SDS011;59989;46.220;19.888;2022-08-14T03:23:48;12.32;;;6.40;;
72113;SDS011;59989;46.220;19.888;2022-08-14T03:26:54;11.57;;;6.40;;
72113;SDS011;59989;46.220;19.888;2022-08-14T03:29:58;10.77;;;6.00;;
72113;SDS011;59989;46.220;19.888;2022-08-14T03:33:10;9.63;;;5.50;;
72113;SDS011;59989;46.220;19.888;2022-08-14T03:36:14;10.93;;;6.35;;
72113;SDS011;59989;46.220;19.888;2022-08-14T03:39:39;12.25;;;6.22;;
72113;SDS011;59989;46.220;19.888;2022-08-14T03:42:42;13.18;;;6.57;;
72113;SDS011;59989;46.220;19.888;2022-08-14T03:45:46;11.15;;;6.55;;
72113;SDS011;59989;46.220;19.888;2022-08-14T03:48:49;11.63;;;6.17;;
72113;SDS011;59989;46.220;19.888;2022-08-14T03:51:55;12.00;;;6.40;;
72113;SDS011;59989;46.220;19.888;2022-08-14T03:55:03;13.02;;;6.22;;
72113;SDS011;59989;46.220;19.888;2022-08-14T03:58:08;11.70;;;5.88;;
72113;SDS011;59989;46.220;19.888;2022-08-14T04:01:24;12.32;;;6.35;;
72113;SDS011;59989;46.220;19.888;2022-08-14T04:04:40;11.63;;;6.43;;
72113;SDS011;59989;46.220;19.888;2022-08-14T04:07:45;13.48;;;7.07;;
72113;SDS011;59989;46.220;19.888;2022-08-14T04:11:01;12.57;;;6.45;;
72113;SDS011;59989;46.220;19.888;2022-08-14T04:14:12;12.55;;;6.88;;
72113;SDS011;59989;46.220;19.888;2022-08-14T04:17:20;11.30;;;6.55;;
72113;SDS011;59989;46.220;19.888;2022-08-14T04:20:24;13.43;;;7.40;;
72113;SDS011;59989;46.220;19.888;2022-08-14T04:23:27;11.90;;;6.38;;
72113;SDS011;59989;46.220;19.888;2022-08-14T04:26:34;13.18;;;6.80;;
72113;SDS011;59989;46.220;19.888;2022-08-14T04:29:44;13.82;;;6.75;;
72113;SDS011;59989;46.220;19.888;2022-08-14T04:32:46;11.48;;;7.20;;
72113;SDS011;59989;46.220;19.888;2022-08-14T04:36:09;14.13;;;6.50;;
72113;SDS011;59989;46.220;19.888;2022-08-14T04:39:18;10.63;;;6.38;;
72113;SDS011;59989;46.220;19.888;2022-08-14T04:42:58;12.77;;;7.35;;
72113;SDS011;59989;46.220;19.888;2022-08-14T04:46:22;11.88;;;6.95;;
72113;SDS011;59989;46.220;19.888;2022-08-14T04:49:45;12.55;;;6.68;;
72113;SDS011;59989;46.220;19.888;2022-08-14T04:52:58;11.47;;;6.43;;
72113;SDS011;59989;46.220;19.888;2022-08-14T04:56:02;11.85;;;6.47;;
72113;SDS011;59989;46.220;19.888;2022-08-14T04:59:11;11.82;;;7.22;;
72113;SDS011;59989;46.220;19.888;2022-08-14T05:02:14;12.48;;;6.40;;
72113;SDS011;59989;46.220;19.888;2022-08-14T05:05:19;12.27;;;6.45;;
72113;SDS011;59989;46.220;19.888;2022-08-14T05:08:22;10.13;;;6.37;;
72113;SDS011;59989;46.220;19.888;2022-08-14T05:11:45;12.20;;;6.68;;
72113;SDS011;59989;46.220;19.888;2022-08-14T05:14:49;14.27;;;6.95;;
72113;SDS011;59989;46.220;19.888;2022-08-14T05:17:56;11.20;;;6.63;;
72113;SDS011;59989;46.220;19.888;2022-08-14T05:21:18;12.43;;;6.72;;
72113;SDS011;59989;46.220;19.888;2022-08-14T05:24:41;12.17;;;6.90;;
72113;SDS011;59989;46.220;19.888;2022-08-14T05:27:44;12.18;;;7.18;;
72113;SDS011;59989;46.220;19.888;2022-08-14T05:30:48;12.63;;;6.88;;
72113;SDS011;59989;46.220;19.888;2022-08-14T05:33:58;15.07;;;6.72;;
72113;SDS011;59989;46.220;19.888;2022-08-14T05:37:00;12.88;;;6.78;;
72113;SDS011;59989;46.220;19.888;2022-08-14T05:40:07;14.47;;;6.60;;
72113;SDS011;59989;46.220;19.888;2022-08-14T05:43:13;10.88;;;6.65;;
72113;SDS011;59989;46.220;19.888;2022-08-14T05:46:18;11.15;;;7.18;;
72113;SDS011;59989;46.220;19.888;2022-08-14T05:49:24;11.60;;;6.95;;
72113;SDS011;59989;46.220;19.888;2022-08-14T05:52:34;12.55;;;7.28;;
72113;SDS011;59989;46.220;19.888;2022-08-14T05:55:50;12.83;;;6.67;;
72113;SDS011;59989;46.220;19.888;2022-08-14T05:58:53;12.98;;;7.00;;
72113;SDS011;59989;46.220;19.888;2022-08-14T06:01:56;12.55;;;7.00;;
72113;SDS011;59989;46.220;19.888;2022-08-14T06:04:59;14.60;;;7.15;;
72113;SDS011;59989;46.220;19.888;2022-08-14T06:08:03;11.32;;;6.55;;
72113;SDS011;59989;46.220;19.888;2022-08-14T06:11:26;10.93;;;6.33;;
72113;SDS011;59989;46.220;19.888;2022-08-14T06:14:32;12.38;;;7.32;;
72113;SDS011;59989;46.220;19.888;2022-08-14T06:17:44;12.07;;;6.85;;
72113;SDS011;59989;46.220;19.888;2022-08-14T06:21:01;12.32;;;7.40;;
72113;SDS011;59989;46.220;19.888;2022-08-14T06:24:07;10.60;;;6.80;;
72113;SDS011;59989;46.220;19.888;2022-08-14T06:27:19;11.93;;;7.50;;
72113;SDS011;59989;46.220;19.888;2022-08-14T06:30:25;12.18;;;7.30;;
72113;SDS011;59989;46.220;19.888;2022-08-14T06:33:42;13.30;;;8.45;;
72113;SDS011;59989;46.220;19.888;2022-08-14T06:37:05;24.25;;;12.70;;
72113;SDS011;59989;46.220;19.888;2022-08-14T06:40:11;22.10;;;11.75;;
72113;SDS011;59989;46.220;19.888;2022-08-14T06:43:28;11.93;;;7.53;;
72113;SDS011;59989;46.220;19.888;2022-08-14T06:46:33;12.05;;;7.55;;
72113;SDS011;59989;46.220;19.888;2022-08-14T06:49:38;12.18;;;7.43;;
72113;SDS011;59989;46.220;19.888;2022-08-14T06:52:47;11.88;;;7.53;;
72113;SDS011;59989;46.220;19.888;2022-08-14T06:55:51;13.18;;;7.53;;
72113;SDS011;59989;46.220;19.888;2022-08-14T06:59:03;12.40;;;7.87;;
72113;SDS011;59989;46.220;19.888;2022-08-14T07:02:06;14.60;;;7.68;;
72113;SDS011;59989;46.220;19.888;2022-08-14T07:05:30;14.88;;;7.30;;
72113;SDS011;59989;46.220;19.888;2022-08-14T07:08:59;12.73;;;7.20;;
72113;SDS011;59989;46.220;19.888;2022-08-14T07:12:02;13.43;;;7.72;;
72113;SDS011;59989;46.220;19.888;2022-08-14T07:15:05;13.33;;;7.30;;
72113;SDS011;59989;46.220;19.888;2022-08-14T07:18:08;17.80;;;8.43;;
72113;SDS011;59989;46.220;19.888;2022-08-14T07:21:11;13.82;;;7.82;;
72113;SDS011;59989;46.220;19.888;2022-08-14T07:24:14;13.57;;;7.80;;
72113;SDS011;59989;46.220;19.888;2022-08-14T07:27:32;12.98;;;7.97;;
72113;SDS011;59989;46.220;19.888;2022-08-14T07:30:37;14.33;;;8.20;;
72113;SDS011;59989;46.220;19.888;2022-08-14T07:33:52;14.02;;;7.72;;
72113;SDS011;59989;46.220;19.888;2022-08-14T07:36:54;15.35;;;8.73;;
72113;SDS011;59989;46.220;19.888;2022-08-14T07:40:03;12.43;;;8.15;;
72113;SDS011;59989;46.220;19.888;2022-08-14T07:43:06;14.98;;;8.23;;
72113;SDS011;59989;46.220;19.888;2022-08-14T07:46:15;14.57;;;9.13;;
72113;SDS011;59989;46.220;19.888;2022-08-14T07:49:30;14.55;;;8.00;;
72113;SDS011;59989;46.220;19.888;2022-08-14T07:52:33;13.48;;;7.95;;
72113;SDS011;59989;46.220;19.888;2022-08-14T07:55:36;16.13;;;8.85;;
72113;SDS011;59989;46.220;19.888;2022-08-14T07:58:40;14.05;;;8.57;;
72113;SDS011;59989;46.220;19.888;2022-08-14T08:01:52;14.83;;;8.20;;
72113;SDS011;59989;46.220;19.888;2022-08-14T08:04:59;12.93;;;8.43;;
72113;SDS011;59989;46.220;19.888;2022-08-14T08:08:04;14.68;;;9.05;;
72113;SDS011;59989;46.220;19.888;2022-08-14T08:11:27;13.70;;;8.40;;
72113;SDS011;59989;46.220;19.888;2022-08-14T08:14:37;15.88;;;8.95;;
72113;SDS011;59989;46.220;19.888;2022-08-14T08:18:03;18.83;;;8.40;;
72113;SDS011;59989;46.220;19.888;2022-08-14T08:21:06;14.98;;;8.38;;
72113;SDS011;59989;46.220;19.888;2022-08-14T08:24:09;15.63;;;8.48;;
72113;SDS011;59989;46.220;19.888;2022-08-14T08:27:16;14.02;;;8.40;;
72113;SDS011;59989;46.220;19.888;2022-08-14T08:30:27;14.70;;;8.68;;
72113;SDS011;59989;46.220;19.888;2022-08-14T08:33:32;17.00;;;8.40;;
72113;SDS011;59989;46.220;19.888;2022-08-14T08:36:39;13.75;;;8.48;;
72113;SDS011;59989;46.220;19.888;2022-08-14T08:39:44;15.25;;;8.35;;
72113;SDS011;59989;46.220;19.888;2022-08-14T08:43:06;20.02;;;8.93;;
72113;SDS011;59989;46.220;19.888;2022-08-14T08:46:12;16.77;;;9.40;;
72113;SDS011;59989;46.220;19.888;2022-08-14T08:49:47;15.83;;;9.13;;
72113;SDS011;59989;46.220;19.888;2022-08-14T08:53:02;17.42;;;8.68;;
72113;SDS011;59989;46.220;19.888;2022-08-14T08:56:06;18.70;;;8.05;;
72113;SDS011;59989;46.220;19.888;2022-08-14T08:59:21;14.60;;;8.50;;
72113;SDS011;59989;46.220;19.888;2022-08-14T09:02:32;19.00;;;8.73;;
72113;SDS011;59989;46.220;19.888;2022-08-14T09:05:36;14.50;;;8.77;;
72113;SDS011;59989;46.220;19.888;2022-08-14T09:08:44;17.55;;;9.13;;
72113;SDS011;59989;46.220;19.888;2022-08-14T09:11:47;16.20;;;9.23;;
72113;SDS011;59989;46.220;19.888;2022-08-14T09:14:49;17.33;;;9.90;;
72113;SDS011;59989;46.220;19.888;2022-08-14T09:17:54;17.75;;;9.40;;
72113;SDS011;59989;46.220;19.888;2022-08-14T09:20:58;17.70;;;9.20;;
72113;SDS011;59989;46.220;19.888;2022-08-14T09:24:01;17.77;;;10.00;;
72113;SDS011;59989;46.220;19.888;2022-08-14T09:27:23;17.95;;;9.77;;
72113;SDS011;59989;46.220;19.888;2022-08-14T09:30:29;14.90;;;8.48;;
72113;SDS011;59989;46.220;19.888;2022-08-14T09:33:42;15.73;;;9.50;;
72113;SDS011;59989;46.220;19.888;2022-08-14T09:44:04;18.63;;;10.05;;
72113;SDS011;59989;46.220;19.888;2022-08-14T09:47:10;17.30;;;9.55;;
72113;SDS011;59989;46.220;19.888;2022-08-14T09:50:20;13.82;;;8.60;;
72113;SDS011;59989;46.220;19.888;2022-08-14T09:53:35;14.63;;;8.87;;
72113;SDS011;59989;46.220;19.888;2022-08-14T09:57:05;14.35;;;8.40;;
72113;SDS011;59989;46.220;19.888;2022-08-14T10:00:12;14.68;;;8.23;;
72113;SDS011;59989;46.220;19.888;2022-08-14T10:03:32;15.98;;;8.77;;
72113;SDS011;59989;46.220;19.888;2022-08-14T10:06:41;16.33;;;9.45;;
72113;SDS011;59989;46.220;19.888;2022-08-14T10:09:47;16.97;;;9.57;;
72113;SDS011;59989;46.220;19.888;2022-08-14T10:13:04;15.02;;;9.38;;
72113;SDS011;59989;46.220;19.888;2022-08-14T10:16:09;17.00;;;8.82;;
72113;SDS011;59989;46.220;19.888;2022-08-14T10:19:32;15.43;;;8.40;;
72113;SDS011;59989;46.220;19.888;2022-08-14T10:22:36;14.48;;;7.93;;
72113;SDS011;59989;46.220;19.888;2022-08-14T10:26:03;14.50;;;7.73;;
72113;SDS011;59989;46.220;19.888;2022-08-14T10:29:08;13.55;;;7.90;;
72113;SDS011;59989;46.220;19.888;2022-08-14T10:32:23;14.15;;;7.97;;
72113;SDS011;59989;46.220;19.888;2022-08-14T10:35:41;14.90;;;8.45;;
72113;SDS011;59989;46.220;19.888;2022-08-14T10:38:54;13.27;;;7.65;;
72113;SDS011;59989;46.220;19.888;2022-08-14T10:45:22;12.10;;;7.72;;
72113;SDS011;59989;46.220;19.888;2022-08-14T10:48:26;11.55;;;7.18;;
72113;SDS011;59989;46.220;19.888;2022-08-14T10:51:40;15.23;;;8.35;;
72113;SDS011;59989;46.220;19.888;2022-08-14T10:54:44;12.70;;;7.53;;
72113;SDS011;59989;46.220;19.888;2022-08-14T10:57:57;10.87;;;6.83;;
72113;SDS011;59989;46.220;19.888;2022-08-14T11:01:01;12.70;;;7.40;;
72113;SDS011;59989;46.220;19.888;2022-08-14T11:04:21;12.27;;;7.57;;
72113;SDS011;59989;46.220;19.888;2022-08-14T11:07:32;12.77;;;7.57;;
72113;SDS011;59989;46.220;19.888;2022-08-14T11:10:46;12.23;;;8.15;;
72113;SDS011;59989;46.220;19.888;2022-08-14T11:13:57;12.27;;;7.90;;
72113;SDS011;59989;46.220;19.888;2022-08-14T11:17:00;14.30;;;7.78;;
72113;SDS011;59989;46.220;19.888;2022-08-14T11:20:05;12.38;;;7.53;;
72113;SDS011;59989;46.220;19.888;2022-08-14T11:23:17;12.77;;;7.70;;
72113;SDS011;59989;46.220;19.888;2022-08-14T11:26:22;12.82;;;7.80;;
72113;SDS011;59989;46.220;19.888;2022-08-14T11:29:27;13.77;;;7.17;;
72113;SDS011;59989;46.220;19.888;2022-08-14T11:32:40;14.60;;;6.97;;
72113;SDS011;59989;46.220;19.888;2022-08-14T11:35:46;14.65;;;7.70;;
72113;SDS011;59989;46.220;19.888;2022-08-14T11:38:49;13.52;;;7.03;;
72113;SDS011;59989;46.220;19.888;2022-08-14T11:41:54;14.07;;;6.90;;
72113;SDS011;59989;46.220;19.888;2022-08-14T11:45:02;10.93;;;6.53;;
72113;SDS011;59989;46.220;19.888;2022-08-14T11:48:16;10.88;;;7.07;;
72113;SDS011;59989;46.220;19.888;2022-08-14T11:51:42;11.40;;;6.93;;
72113;SDS011;59989;46.220;19.888;2022-08-14T11:54:56;11.85;;;7.10;;
72113;SDS011;59989;46.220;19.888;2022-08-14T11:58:00;13.52;;;7.28;;
72113;SDS011;59989;46.220;19.888;2022-08-14T12:01:06;13.53;;;6.80;;
72113;SDS011;59989;46.220;19.888;2022-08-14T12:04:11;12.43;;;7.35;;
72113;SDS011;59989;46.220;19.888;2022-08-14T12:07:34;12.65;;;7.60;;
72113;SDS011;59989;46.220;19.888;2022-08-14T12:10:39;12.95;;;7.43;;
72113;SDS011;59989;46.220;19.888;2022-08-14T12:13:44;13.88;;;7.88;;
72113;SDS011;59989;46.220;19.888;2022-08-14T12:16:58;12.87;;;7.10;;
72113;SDS011;59989;46.220;19.888;2022-08-14T12:20:14;14.02;;;7.72;;
72113;SDS011;59989;46.220;19.888;2022-08-14T12:23:31;13.82;;;7.97;;
72113;SDS011;59989;46.220;19.888;2022-08-14T12:26:34;12.65;;;7.82;;
72113;SDS011;59989;46.220;19.888;2022-08-14T12:29:52;11.38;;;7.93;;
72113;SDS011;59989;46.220;19.888;2022-08-14T12:32:55;10.83;;;7.13;;
72113;SDS011;59989;46.220;19.888;2022-08-14T12:35:58;12.18;;;7.60;;
72113;SDS011;59989;46.220;19.888;2022-08-14T12:39:19;12.18;;;7.70;;
72113;SDS011;59989;46.220;19.888;2022-08-14T12:42:35;12.75;;;7.32;;
72113;SDS011;59989;46.220;19.888;2022-08-14T12:45:49;12.98;;;7.60;;
72113;SDS011;59989;46.220;19.888;2022-08-14T12:48:59;12.50;;;7.70;;
72113;SDS011;59989;46.220;19.888;2022-08-14T12:52:06;14.60;;;8.18;;
72113;SDS011;59989;46.220;19.888;2022-08-14T12:55:18;11.95;;;8.15;;
72113;SDS011;59989;46.220;19.888;2022-08-14T12:58:25;12.57;;;7.60;;
72113;SDS011;59989;46.220;19.888;2022-08-14T13:01:55;11.88;;;7.90;;
72113;SDS011;59989;46.220;19.888;2022-08-14T13:05:04;14.07;;;7.93;;
72113;SDS011;59989;46.220;19.888;2022-08-14T13:08:08;12.07;;;7.93;;
72113;SDS011;59989;46.220;19.888;2022-08-14T13:14:46;11.73;;;7.80;;
72113;SDS011;59989;46.220;19.888;2022-08-14T13:17:50;14.10;;;8.10;;
72113;SDS011;59989;46.220;19.888;2022-08-14T13:20:57;11.73;;;8.33;;
72113;SDS011;59989;46.220;19.888;2022-08-14T13:24:03;13.75;;;7.35;;
72113;SDS011;59989;46.220;19.888;2022-08-14T13:27:08;11.77;;;7.88;;
72113;SDS011;59989;46.220;19.888;2022-08-14T13:30:14;12.23;;;7.97;;
72113;SDS011;59989;46.220;19.888;2022-08-14T13:33:25;12.50;;;7.57;;
72113;SDS011;59989;46.220;19.888;2022-08-14T13:36:28;15.03;;;8.53;;
72113;SDS011;59989;46.220;19.888;2022-08-14T13:39:52;11.63;;;7.68;;
72113;SDS011;59989;46.220;19.888;2022-08-14T13:42:58;10.73;;;7.43;;
72113;SDS011;59989;46.220;19.888;2022-08-14T13:46:02;13.10;;;7.50;;
72113;SDS011;59989;46.220;19.888;2022-08-14T13:49:05;11.80;;;7.22;;
72113;SDS011;59989;46.220;19.888;2022-08-14T13:52:11;11.53;;;7.17;;
72113;SDS011;59989;46.220;19.888;2022-08-14T13:55:40;11.30;;;7.60;;
72113;SDS011;59989;46.220;19.888;2022-08-14T13:58:51;12.10;;;7.75;;
72113;SDS011;59989;46.220;19.888;2022-08-14T14:02:03;16.13;;;7.97;;
72113;SDS011;59989;46.220;19.888;2022-08-14T14:05:10;12.25;;;7.80;;
72113;SDS011;59989;46.220;19.888;2022-08-14T14:08:17;11.77;;;7.43;;
72113;SDS011;59989;46.220;19.888;2022-08-14T14:11:42;10.10;;;7.72;;
72113;SDS011;59989;46.220;19.888;2022-08-14T14:14:45;13.25;;;8.32;;
72113;SDS011;59989;46.220;19.888;2022-08-14T14:17:55;10.77;;;7.80;;
72113;SDS011;59989;46.220;19.888;2022-08-14T14:21:01;10.88;;;8.20;;
72113;SDS011;59989;46.220;19.888;2022-08-14T14:24:04;11.47;;;8.10;;
72113;SDS011;59989;46.220;19.888;2022-08-14T14:27:08;11.65;;;7.72;;
72113;SDS011;59989;46.220;19.888;2022-08-14T14:30:34;13.20;;;8.73;;
72113;SDS011;59989;46.220;19.888;2022-08-14T14:33:55;10.98;;;8.30;;
72113;SDS011;59989;46.220;19.888;2022-08-14T14:36:59;10.25;;;8.07;;
72113;SDS011;59989;46.220;19.888;2022-08-14T14:40:06;11.00;;;7.80;;
72113;SDS011;59989;46.220;19.888;2022-08-14T14:43:29;12.45;;;7.80;;
72113;SDS011;59989;46.220;19.888;2022-08-14T14:46:38;11.82;;;7.88;;
72113;SDS011;59989;46.220;19.888;2022-08-14T14:49:43;12.10;;;7.97;;
72113;SDS011;59989;46.220;19.888;2022-08-14T14:52:56;12.20;;;7.95;;
72113;SDS011;59989;46.220;19.888;2022-08-14T14:56:14;11.07;;;7.87;;
72113;SDS011;59989;46.220;19.888;2022-08-14T14:59:37;12.55;;;7.93;;
72113;SDS011;59989;46.220;19.888;2022-08-14T15:02:41;11.18;;;7.88;;
72113;SDS011;59989;46.220;19.888;2022-08-14T15:05:50;12.52;;;8.30;;
72113;SDS011;59989;46.220;19.888;2022-08-14T15:08:57;13.32;;;8.00;;
72113;SDS011;59989;46.220;19.888;2022-08-14T15:12:01;13.87;;;8.07;;
72113;SDS011;59989;46.220;19.888;2022-08-14T15:15:23;13.43;;;7.90;;
72113;SDS011;59989;46.220;19.888;2022-08-14T15:18:28;12.25;;;7.63;;
72113;SDS011;59989;46.220;19.888;2022-08-14T15:21:39;13.95;;;8.30;;
72113;SDS011;59989;46.220;19.888;2022-08-14T15:24:42;12.40;;;7.85;;
72113;SDS011;59989;46.220;19.888;2022-08-14T15:27:47;11.17;;;7.97;;
72113;SDS011;59989;46.220;19.888;2022-08-14T15:30:55;12.65;;;7.88;;
72113;SDS011;59989;46.220;19.888;2022-08-14T15:34:00;11.13;;;7.60;;
72113;SDS011;59989;46.220;19.888;2022-08-14T15:37:39;10.40;;;8.00;;
72113;SDS011;59989;46.220;19.888;2022-08-14T15:40:44;12.60;;;8.23;;
72113;SDS011;59989;46.220;19.888;2022-08-14T15:43:57;11.20;;;7.60;;
72113;SDS011;59989;46.220;19.888;2022-08-14T15:47:01;10.38;;;7.60;;
72113;SDS011;59989;46.220;19.888;2022-08-14T15:50:10;11.77;;;7.47;;
72113;SDS011;59989;46.220;19.888;2022-08-14T15:53:14;10.18;;;7.13;;
72113;SDS011;59989;46.220;19.888;2022-08-14T15:56:18;10.30;;;7.15;;
72113;SDS011;59989;46.220;19.888;2022-08-14T15:59:40;11.57;;;6.90;;
72113;SDS011;59989;46.220;19.888;2022-08-14T16:03:02;12.48;;;7.07;;
72113;SDS011;59989;46.220;19.888;2022-08-14T16:06:11;11.55;;;7.00;;
72113;SDS011;59989;46.220;19.888;2022-08-14T16:09:18;12.10;;;6.85;;
72113;SDS011;59989;46.220;19.888;2022-08-14T16:12:22;13.40;;;7.00;;
72113;SDS011;59989;46.220;19.888;2022-08-14T16:15:44;12.80;;;6.80;;
72113;SDS011;59989;46.220;19.888;2022-08-14T16:18:54;12.73;;;6.78;;
72113;SDS011;59989;46.220;19.888;2022-08-14T16:22:02;10.25;;;6.82;;
72113;SDS011;59989;46.220;19.888;2022-08-14T16:25:26;11.75;;;6.78;;
72113;SDS011;59989;46.220;19.888;2022-08-14T16:28:36;12.23;;;6.65;;
72113;SDS011;59989;46.220;19.888;2022-08-14T16:31:41;10.83;;;6.70;;
72113;SDS011;59989;46.220;19.888;2022-08-14T16:34:44;11.23;;;6.25;;
72113;SDS011;59989;46.220;19.888;2022-08-14T16:37:55;10.40;;;6.45;;
72113;SDS011;59989;46.220;19.888;2022-08-14T16:41:02;10.60;;;6.55;;
72113;SDS011;59989;46.220;19.888;2022-08-14T16:44:24;15.80;;;6.53;;
72113;SDS011;59989;46.220;19.888;2022-08-14T16:47:41;13.47;;;6.77;;
72113;SDS011;59989;46.220;19.888;2022-08-14T16:50:46;12.10;;;6.90;;
72113;SDS011;59989;46.220;19.888;2022-08-14T16:53:49;13.32;;;6.78;;
72113;SDS011;59989;46.220;19.888;2022-08-14T16:56:51;11.65;;;6.95;;
72113;SDS011;59989;46.220;19.888;2022-08-14T16:59:54;14.43;;;6.53;;
72113;SDS011;59989;46.220;19.888;2022-08-14T17:03:07;11.73;;;6.40;;
72113;SDS011;59989;46.220;19.888;2022-08-14T17:06:12;12.20;;;6.78;;
72113;SDS011;59989;46.220;19.888;2022-08-14T17:09:56;12.48;;;6.00;;
72113;SDS011;59989;46.220;19.888;2022-08-14T17:13:17;12.32;;;6.35;;
72113;SDS011;59989;46.220;19.888;2022-08-14T17:16:55;9.65;;;5.70;;
72113;SDS011;59989;46.220;19.888;2022-08-14T17:20:00;12.43;;;5.50;;
72113;SDS011;59989;46.220;19.888;2022-08-14T17:23:31;12.18;;;5.05;;
72113;SDS011;59989;46.220;19.888;2022-08-14T17:26:35;10.82;;;5.55;;
72113;SDS011;59989;46.220;19.888;2022-08-14T17:29:43;9.77;;;5.32;;
72113;SDS011;59989;46.220;19.888;2022-08-14T17:32:58;10.27;;;5.45;;
72113;SDS011;59989;46.220;19.888;2022-08-14T17:36:24;12.40;;;5.00;;
72113;SDS011;59989;46.220;19.888;2022-08-14T17:39:26;10.05;;;4.88;;
72113;SDS011;59989;46.220;19.888;2022-08-14T17:45:54;10.50;;;4.90;;
72113;SDS011;59989;46.220;19.888;2022-08-14T17:49:08;10.80;;;5.15;;
72113;SDS011;59989;46.220;19.888;2022-08-14T17:52:18;11.50;;;5.60;;
72113;SDS011;59989;46.220;19.888;2022-08-14T17:55:39;10.65;;;5.10;;
72113;SDS011;59989;46.220;19.888;2022-08-14T17:59:04;11.88;;;5.20;;
72113;SDS011;59989;46.220;19.888;2022-08-14T18:02:08;10.13;;;5.10;;
72113;SDS011;59989;46.220;19.888;2022-08-14T18:05:18;10.07;;;4.82;;
72113;SDS011;59989;46.220;19.888;2022-08-14T18:08:42;16.17;;;8.77;;
72113;SDS011;59989;46.220;19.888;2022-08-14T18:11:45;11.50;;;5.68;;
72113;SDS011;59989;46.220;19.888;2022-08-14T18:14:48;12.13;;;5.00;;
72113;SDS011;59989;46.220;19.888;2022-08-14T18:17:54;10.38;;;4.53;;
72113;SDS011;59989;46.220;19.888;2022-08-14T18:20:58;9.55;;;4.80;;
72113;SDS011;59989;46.220;19.888;2022-08-14T18:24:21;9.60;;;4.77;;
72113;SDS011;59989;46.220;19.888;2022-08-14T18:27:34;10.20;;;4.88;;
72113;SDS011;59989;46.220;19.888;2022-08-14T18:30:44;9.57;;;4.53;;
72113;SDS011;59989;46.220;19.888;2022-08-14T18:37:18;9.90;;;4.55;;
72113;SDS011;59989;46.220;19.888;2022-08-14T18:40:22;9.63;;;4.40;;
72113;SDS011;59989;46.220;19.888;2022-08-14T18:43:42;10.15;;;4.47;;
72113;SDS011;59989;46.220;19.888;2022-08-14T18:50:14;11.38;;;4.50;;
72113;SDS011;59989;46.220;19.888;2022-08-14T18:53:51;15.98;;;6.15;;
72113;SDS011;59989;46.220;19.888;2022-08-14T18:57:01;12.30;;;4.83;;